sensor_id;sensor_type;location;lat;lon;timestamp;P1;durP1;ratioP1;P2;durP2;ratioP2
55288;SDS011;41154;45.394;5.734;2023-03-13T00:01:01;2.75;;;1.60;;
55288;SDS011;41154;45.394;5.734;2023-03-13T00:03:34;4.97;;;2.38;;
55288;SDS011;41154;45.394;5.734;2023-03-13T00:06:00;5.05;;;2.65;;
55288;SDS011;41154;45.394;5.734;2023-03-13T00:08:28;4.85;;;2.33;;
55288;SDS011;41154;45.394;5.734;2023-03-13T00:10:54;3.72;;;1.90;;
55288;SDS011;41154;45.394;5.734;2023-03-13T00:13:22;3.72;;;2.17;;
55288;SDS011;41154;45.394;5.734;2023-03-13T00:15:48;8.40;;;2.53;;
55288;SDS011;41154;45.394;5.734;2023-03-13T00:18:14;4.18;;;2.50;;
55288;SDS011;41154;45.394;5.734;2023-03-13T00:20:39;6.45;;;2.75;;
55288;SDS011;41154;45.394;5.734;2023-03-13T00:23:05;6.03;;;2.88;;
55288;SDS011;41154;45.394;5.734;2023-03-13T00:25:31;4.78;;;2.47;;
55288;SDS011;41154;45.394;5.734;2023-03-13T00:27:56;7.63;;;2.90;;
55288;SDS011;41154;45.394;5.734;2023-03-13T00:30:25;6.07;;;2.50;;
55288;SDS011;41154;45.394;5.734;2023-03-13T00:32:51;3.92;;;2.83;;
55288;SDS011;41154;45.394;5.734;2023-03-13T00:35:16;6.07;;;2.90;;
55288;SDS011;41154;45.394;5.734;2023-03-13T00:37:42;7.40;;;3.40;;
55288;SDS011;41154;45.394;5.734;2023-03-13T00:40:08;4.57;;;2.75;;
55288;SDS011;41154;45.394;5.734;2023-03-13T00:42:34;5.32;;;2.53;;
55288;SDS011;41154;45.394;5.734;2023-03-13T00:45:03;6.30;;;2.45;;
55288;SDS011;41154;45.394;5.734;2023-03-13T00:47:29;3.70;;;2.20;;
55288;SDS011;41154;45.394;5.734;2023-03-13T00:49:55;5.05;;;1.77;;
55288;SDS011;41154;45.394;5.734;2023-03-13T00:52:21;3.28;;;1.58;;
55288;SDS011;41154;45.394;5.734;2023-03-13T00:54:47;3.35;;;1.63;;
55288;SDS011;41154;45.394;5.734;2023-03-13T00:57:13;4.70;;;1.77;;
55288;SDS011;41154;45.394;5.734;2023-03-13T00:59:39;2.35;;;1.50;;
55288;SDS011;41154;45.394;5.734;2023-03-13T01:02:05;2.25;;;1.73;;
55288;SDS011;41154;45.394;5.734;2023-03-13T01:04:33;4.53;;;1.75;;
55288;SDS011;41154;45.394;5.734;2023-03-13T01:06:59;2.70;;;1.55;;
55288;SDS011;41154;45.394;5.734;2023-03-13T01:09:25;2.83;;;1.70;;
55288;SDS011;41154;45.394;5.734;2023-03-13T01:11:51;5.28;;;2.05;;
55288;SDS011;41154;45.394;5.734;2023-03-13T01:14:17;3.03;;;1.80;;
55288;SDS011;41154;45.394;5.734;2023-03-13T01:16:44;3.20;;;1.92;;
55288;SDS011;41154;45.394;5.734;2023-03-13T01:19:13;2.75;;;1.92;;
55288;SDS011;41154;45.394;5.734;2023-03-13T01:21:41;3.63;;;1.88;;
55288;SDS011;41154;45.394;5.734;2023-03-13T01:24:07;3.17;;;1.65;;
55288;SDS011;41154;45.394;5.734;2023-03-13T01:26:36;3.38;;;1.73;;
55288;SDS011;41154;45.394;5.734;2023-03-13T01:29:02;3.90;;;1.30;;
55288;SDS011;41154;45.394;5.734;2023-03-13T01:31:29;3.85;;;1.73;;
55288;SDS011;41154;45.394;5.734;2023-03-13T01:33:58;2.65;;;1.90;;
55288;SDS011;41154;45.394;5.734;2023-03-13T01:36:27;3.88;;;2.20;;
55288;SDS011;41154;45.394;5.734;2023-03-13T01:38:54;7.13;;;1.95;;
55288;SDS011;41154;45.394;5.734;2023-03-13T01:41:22;3.13;;;2.20;;
55288;SDS011;41154;45.394;5.734;2023-03-13T01:43:49;3.88;;;2.13;;
55288;SDS011;41154;45.394;5.734;2023-03-13T01:46:19;3.30;;;2.65;;
55288;SDS011;41154;45.394;5.734;2023-03-13T01:56:42;4.18;;;2.25;;
55288;SDS011;41154;45.394;5.734;2023-03-13T01:59:15;4.72;;;2.42;;
55288;SDS011;41154;45.394;5.734;2023-03-13T02:01:45;6.30;;;2.67;;
55288;SDS011;41154;45.394;5.734;2023-03-13T02:04:15;3.20;;;2.00;;
55288;SDS011;41154;45.394;5.734;2023-03-13T02:06:45;4.75;;;2.20;;
55288;SDS011;41154;45.394;5.734;2023-03-13T02:09:15;2.97;;;2.00;;
55288;SDS011;41154;45.394;5.734;2023-03-13T02:14:40;3.97;;;1.90;;
55288;SDS011;41154;45.394;5.734;2023-03-13T02:17:11;5.30;;;1.95;;
55288;SDS011;41154;45.394;5.734;2023-03-13T02:27:27;2.65;;;1.70;;
55288;SDS011;41154;45.394;5.734;2023-03-13T02:29:53;3.90;;;2.10;;
55288;SDS011;41154;45.394;5.734;2023-03-13T02:32:20;3.55;;;1.88;;
55288;SDS011;41154;45.394;5.734;2023-03-13T02:34:47;4.00;;;2.13;;
55288;SDS011;41154;45.394;5.734;2023-03-13T02:37:17;4.30;;;2.33;;
55288;SDS011;41154;45.394;5.734;2023-03-13T02:39:48;3.60;;;1.48;;
55288;SDS011;41154;45.394;5.734;2023-03-13T02:42:16;7.30;;;1.60;;
55288;SDS011;41154;45.394;5.734;2023-03-13T02:44:44;3.30;;;1.52;;
55288;SDS011;41154;45.394;5.734;2023-03-13T02:47:16;5.25;;;2.00;;
55288;SDS011;41154;45.394;5.734;2023-03-13T02:49:43;7.03;;;2.17;;
55288;SDS011;41154;45.394;5.734;2023-03-13T02:52:15;3.45;;;2.20;;
55288;SDS011;41154;45.394;5.734;2023-03-13T02:54:46;3.55;;;1.85;;
55288;SDS011;41154;45.394;5.734;2023-03-13T02:57:15;5.13;;;2.20;;
55288;SDS011;41154;45.394;5.734;2023-03-13T02:59:40;4.88;;;2.10;;
55288;SDS011;41154;45.394;5.734;2023-03-13T03:02:06;6.07;;;1.90;;
55288;SDS011;41154;45.394;5.734;2023-03-13T03:04:32;4.78;;;1.77;;
55288;SDS011;41154;45.394;5.734;2023-03-13T03:06:58;4.47;;;1.85;;
55288;SDS011;41154;45.394;5.734;2023-03-13T03:09:24;2.92;;;2.03;;
55288;SDS011;41154;45.394;5.734;2023-03-13T03:11:53;3.47;;;1.60;;
55288;SDS011;41154;45.394;5.734;2023-03-13T03:14:19;5.38;;;1.50;;
55288;SDS011;41154;45.394;5.734;2023-03-13T03:16:46;3.15;;;1.80;;
55288;SDS011;41154;45.394;5.734;2023-03-13T03:19:13;3.63;;;1.75;;
55288;SDS011;41154;45.394;5.734;2023-03-13T03:21:39;3.17;;;1.63;;
55288;SDS011;41154;45.394;5.734;2023-03-13T03:24:05;5.60;;;1.63;;
55288;SDS011;41154;45.394;5.734;2023-03-13T03:26:31;2.92;;;1.10;;
55288;SDS011;41154;45.394;5.734;2023-03-13T03:28:57;3.50;;;1.00;;
55288;SDS011;41154;45.394;5.734;2023-03-13T03:31:24;1.90;;;0.93;;
55288;SDS011;41154;45.394;5.734;2023-03-13T03:33:49;1.70;;;0.90;;
55288;SDS011;41154;45.394;5.734;2023-03-13T03:36:19;1.52;;;1.02;;
55288;SDS011;41154;45.394;5.734;2023-03-13T03:38:47;1.45;;;0.80;;
55288;SDS011;41154;45.394;5.734;2023-03-13T03:41:17;1.20;;;0.90;;
55288;SDS011;41154;45.394;5.734;2023-03-13T03:43:43;4.40;;;1.30;;
55288;SDS011;41154;45.394;5.734;2023-03-13T03:46:14;2.05;;;1.10;;
55288;SDS011;41154;45.394;5.734;2023-03-13T03:48:42;1.85;;;1.20;;
55288;SDS011;41154;45.394;5.734;2023-03-13T03:51:09;2.03;;;1.30;;
55288;SDS011;41154;45.394;5.734;2023-03-13T03:53:39;2.67;;;1.23;;
55288;SDS011;41154;45.394;5.734;2023-03-13T03:56:05;1.63;;;1.00;;
55288;SDS011;41154;45.394;5.734;2023-03-13T03:58:31;1.27;;;0.98;;
55288;SDS011;41154;45.394;5.734;2023-03-13T04:04:24;6.63;;;1.55;;
55288;SDS011;41154;45.394;5.734;2023-03-13T04:06:58;1.63;;;1.15;;
55288;SDS011;41154;45.394;5.734;2023-03-13T04:09:26;2.35;;;1.20;;
55288;SDS011;41154;45.394;5.734;2023-03-13T04:11:52;3.45;;;1.50;;
55288;SDS011;41154;45.394;5.734;2023-03-13T04:14:18;2.30;;;1.58;;
55288;SDS011;41154;45.394;5.734;2023-03-13T04:16:44;3.10;;;1.30;;
55288;SDS011;41154;45.394;5.734;2023-03-13T04:19:12;1.40;;;1.02;;
55288;SDS011;41154;45.394;5.734;2023-03-13T04:21:39;5.35;;;1.73;;
55288;SDS011;41154;45.394;5.734;2023-03-13T04:24:09;5.90;;;1.30;;
55288;SDS011;41154;45.394;5.734;2023-03-13T04:26:40;2.03;;;1.50;;
55288;SDS011;41154;45.394;5.734;2023-03-13T04:29:06;4.75;;;1.20;;
55288;SDS011;41154;45.394;5.734;2023-03-13T04:31:44;2.75;;;1.10;;
55288;SDS011;41154;45.394;5.734;2023-03-13T04:34:33;2.30;;;1.10;;
55288;SDS011;41154;45.394;5.734;2023-03-13T04:37:37;2.88;;;1.20;;
55288;SDS011;41154;45.394;5.734;2023-03-13T04:40:24;2.45;;;1.10;;
55288;SDS011;41154;45.394;5.734;2023-03-13T04:43:02;3.67;;;1.55;;
55288;SDS011;41154;45.394;5.734;2023-03-13T04:45:43;2.05;;;1.38;;
55288;SDS011;41154;45.394;5.734;2023-03-13T04:48:40;2.83;;;1.42;;
55288;SDS011;41154;45.394;5.734;2023-03-13T04:51:28;4.05;;;1.60;;
55288;SDS011;41154;45.394;5.734;2023-03-13T04:54:26;2.47;;;1.48;;
55288;SDS011;41154;45.394;5.734;2023-03-13T04:57:11;2.15;;;1.27;;
55288;SDS011;41154;45.394;5.734;2023-03-13T04:59:57;1.55;;;1.00;;
55288;SDS011;41154;45.394;5.734;2023-03-13T05:03:01;2.28;;;1.20;;
55288;SDS011;41154;45.394;5.734;2023-03-13T05:05:47;2.75;;;1.13;;
55288;SDS011;41154;45.394;5.734;2023-03-13T05:08:31;1.38;;;0.80;;
55288;SDS011;41154;45.394;5.734;2023-03-13T05:11:17;2.08;;;1.20;;
55288;SDS011;41154;45.394;5.734;2023-03-13T05:14:07;3.03;;;1.40;;
55288;SDS011;41154;45.394;5.734;2023-03-13T05:17:10;3.67;;;1.95;;
55288;SDS011;41154;45.394;5.734;2023-03-13T05:19:53;4.97;;;1.90;;
55288;SDS011;41154;45.394;5.734;2023-03-13T05:22:34;2.03;;;1.42;;
55288;SDS011;41154;45.394;5.734;2023-03-13T05:25:18;1.65;;;1.25;;
55288;SDS011;41154;45.394;5.734;2023-03-13T05:28:13;3.38;;;1.70;;
55288;SDS011;41154;45.394;5.734;2023-03-13T05:30:45;2.08;;;1.48;;
55288;SDS011;41154;45.394;5.734;2023-03-13T05:33:22;1.67;;;1.30;;
55288;SDS011;41154;45.394;5.734;2023-03-13T05:36:01;2.30;;;1.30;;
55288;SDS011;41154;45.394;5.734;2023-03-13T05:38:32;2.53;;;1.08;;
55288;SDS011;41154;45.394;5.734;2023-03-13T05:41:13;2.67;;;1.80;;
55288;SDS011;41154;45.394;5.734;2023-03-13T05:43:54;2.92;;;1.67;;
55288;SDS011;41154;45.394;5.734;2023-03-13T05:46:32;2.63;;;1.63;;
55288;SDS011;41154;45.394;5.734;2023-03-13T05:49:13;4.90;;;1.80;;
55288;SDS011;41154;45.394;5.734;2023-03-13T05:51:57;7.40;;;1.95;;
55288;SDS011;41154;45.394;5.734;2023-03-13T05:54:41;4.32;;;2.50;;
55288;SDS011;41154;45.394;5.734;2023-03-13T05:57:22;3.28;;;2.13;;
55288;SDS011;41154;45.394;5.734;2023-03-13T05:59:50;9.88;;;2.25;;
55288;SDS011;41154;45.394;5.734;2023-03-13T06:02:25;5.25;;;2.00;;
55288;SDS011;41154;45.394;5.734;2023-03-13T06:04:51;3.05;;;2.03;;
55288;SDS011;41154;45.394;5.734;2023-03-13T06:07:17;5.88;;;2.10;;
55288;SDS011;41154;45.394;5.734;2023-03-13T06:09:43;5.80;;;2.05;;
55288;SDS011;41154;45.394;5.734;2023-03-13T06:12:09;1.92;;;1.48;;
55288;SDS011;41154;45.394;5.734;2023-03-13T06:14:36;2.97;;;1.90;;
55288;SDS011;41154;45.394;5.734;2023-03-13T06:17:19;4.43;;;2.13;;
55288;SDS011;41154;45.394;5.734;2023-03-13T06:19:47;2.50;;;2.20;;
55288;SDS011;41154;45.394;5.734;2023-03-13T06:22:14;2.85;;;2.20;;
55288;SDS011;41154;45.394;5.734;2023-03-13T06:24:41;4.50;;;1.98;;
55288;SDS011;41154;45.394;5.734;2023-03-13T06:27:08;2.33;;;1.83;;
55288;SDS011;41154;45.394;5.734;2023-03-13T06:29:34;3.95;;;1.63;;
55288;SDS011;41154;45.394;5.734;2023-03-13T06:32:00;3.33;;;1.40;;
55288;SDS011;41154;45.394;5.734;2023-03-13T06:34:26;2.53;;;1.30;;
55288;SDS011;41154;45.394;5.734;2023-03-13T06:36:51;4.75;;;1.85;;
55288;SDS011;41154;45.394;5.734;2023-03-13T06:39:17;3.65;;;1.90;;
55288;SDS011;41154;45.394;5.734;2023-03-13T06:41:43;5.20;;;2.20;;
55288;SDS011;41154;45.394;5.734;2023-03-13T06:44:08;6.45;;;2.70;;
55288;SDS011;41154;45.394;5.734;2023-03-13T06:46:34;3.30;;;2.08;;
55288;SDS011;41154;45.394;5.734;2023-03-13T06:49:00;2.58;;;1.73;;
55288;SDS011;41154;45.394;5.734;2023-03-13T06:51:28;4.38;;;2.30;;
55288;SDS011;41154;45.394;5.734;2023-03-13T06:53:54;2.78;;;1.70;;
55288;SDS011;41154;45.394;5.734;2023-03-13T06:56:20;3.13;;;1.90;;
55288;SDS011;41154;45.394;5.734;2023-03-13T06:58:46;3.15;;;2.00;;
55288;SDS011;41154;45.394;5.734;2023-03-13T07:01:13;3.00;;;2.15;;
55288;SDS011;41154;45.394;5.734;2023-03-13T07:03:40;5.55;;;2.30;;
55288;SDS011;41154;45.394;5.734;2023-03-13T07:06:06;4.28;;;2.33;;
55288;SDS011;41154;45.394;5.734;2023-03-13T07:08:32;3.03;;;2.08;;
55288;SDS011;41154;45.394;5.734;2023-03-13T07:11:03;3.38;;;2.28;;
55288;SDS011;41154;45.394;5.734;2023-03-13T07:13:33;4.38;;;1.95;;
55288;SDS011;41154;45.394;5.734;2023-03-13T07:16:00;3.22;;;1.85;;
55288;SDS011;41154;45.394;5.734;2023-03-13T07:18:31;5.82;;;2.33;;
55288;SDS011;41154;45.394;5.734;2023-03-13T07:20:59;4.53;;;2.70;;
55288;SDS011;41154;45.394;5.734;2023-03-13T07:23:26;4.65;;;2.72;;
55288;SDS011;41154;45.394;5.734;2023-03-13T07:28:24;6.13;;;3.13;;
55288;SDS011;41154;45.394;5.734;2023-03-13T07:30:50;10.73;;;3.60;;
55288;SDS011;41154;45.394;5.734;2023-03-13T07:33:16;6.68;;;3.60;;
55288;SDS011;41154;45.394;5.734;2023-03-13T07:35:46;4.25;;;2.78;;
55288;SDS011;41154;45.394;5.734;2023-03-13T07:38:16;18.70;;;7.63;;
55288;SDS011;41154;45.394;5.734;2023-03-13T07:40:49;20.63;;;7.93;;
55288;SDS011;41154;45.394;5.734;2023-03-13T07:43:16;19.05;;;6.55;;
55288;SDS011;41154;45.394;5.734;2023-03-13T07:45:48;14.00;;;5.38;;
55288;SDS011;41154;45.394;5.734;2023-03-13T07:48:17;9.75;;;3.90;;
55288;SDS011;41154;45.394;5.734;2023-03-13T07:50:43;7.20;;;3.05;;
55288;SDS011;41154;45.394;5.734;2023-03-13T07:53:09;8.15;;;2.70;;
55288;SDS011;41154;45.394;5.734;2023-03-13T07:55:38;6.72;;;2.17;;
55288;SDS011;41154;45.394;5.734;2023-03-13T07:58:04;3.92;;;1.80;;
55288;SDS011;41154;45.394;5.734;2023-03-13T08:00:29;5.03;;;2.30;;
55288;SDS011;41154;45.394;5.734;2023-03-13T08:02:55;4.80;;;2.05;;
55288;SDS011;41154;45.394;5.734;2023-03-13T08:05:21;4.35;;;1.98;;
55288;SDS011;41154;45.394;5.734;2023-03-13T08:07:47;4.88;;;1.77;;
55288;SDS011;41154;45.394;5.734;2023-03-13T08:10:13;4.57;;;2.38;;
55288;SDS011;41154;45.394;5.734;2023-03-13T08:12:38;3.60;;;2.10;;
55288;SDS011;41154;45.394;5.734;2023-03-13T08:15:04;2.92;;;1.10;;
55288;SDS011;41154;45.394;5.734;2023-03-13T08:17:30;2.88;;;1.23;;
55288;SDS011;41154;45.394;5.734;2023-03-13T08:19:56;1.85;;;1.00;;
55288;SDS011;41154;45.394;5.734;2023-03-13T08:22:22;1.50;;;1.05;;
55288;SDS011;41154;45.394;5.734;2023-03-13T08:24:47;1.55;;;0.77;;
55288;SDS011;41154;45.394;5.734;2023-03-13T08:27:13;1.67;;;1.05;;
55288;SDS011;41154;45.394;5.734;2023-03-13T08:29:39;2.63;;;1.00;;
55288;SDS011;41154;45.394;5.734;2023-03-13T08:32:05;4.47;;;1.67;;
55288;SDS011;41154;45.394;5.734;2023-03-13T08:34:30;4.50;;;1.58;;
55288;SDS011;41154;45.394;5.734;2023-03-13T08:36:58;2.55;;;1.40;;
55288;SDS011;41154;45.394;5.734;2023-03-13T08:39:24;2.75;;;1.33;;
55288;SDS011;41154;45.394;5.734;2023-03-13T08:41:49;3.15;;;1.17;;
55288;SDS011;41154;45.394;5.734;2023-03-13T08:44:16;6.35;;;1.60;;
55288;SDS011;41154;45.394;5.734;2023-03-13T08:46:43;1.83;;;0.95;;
55288;SDS011;41154;45.394;5.734;2023-03-13T08:49:09;3.97;;;1.33;;
55288;SDS011;41154;45.394;5.734;2023-03-13T08:51:35;1.95;;;1.15;;
55288;SDS011;41154;45.394;5.734;2023-03-13T08:54:01;2.85;;;1.40;;
55288;SDS011;41154;45.394;5.734;2023-03-13T08:56:28;3.10;;;1.17;;
55288;SDS011;41154;45.394;5.734;2023-03-13T08:58:56;1.80;;;1.17;;
55288;SDS011;41154;45.394;5.734;2023-03-13T09:01:24;1.83;;;1.10;;
55288;SDS011;41154;45.394;5.734;2023-03-13T09:03:52;0.93;;;0.68;;
55288;SDS011;41154;45.394;5.734;2023-03-13T09:06:18;2.50;;;1.15;;
55288;SDS011;41154;45.394;5.734;2023-03-13T09:08:44;2.88;;;0.90;;
55288;SDS011;41154;45.394;5.734;2023-03-13T09:11:14;6.65;;;0.77;;
55288;SDS011;41154;45.394;5.734;2023-03-13T09:13:43;1.10;;;0.80;;
55288;SDS011;41154;45.394;5.734;2023-03-13T09:16:12;1.88;;;0.85;;
55288;SDS011;41154;45.394;5.734;2023-03-13T09:18:41;1.02;;;0.85;;
55288;SDS011;41154;45.394;5.734;2023-03-13T09:21:08;1.63;;;0.80;;
55288;SDS011;41154;45.394;5.734;2023-03-13T09:23:36;1.10;;;0.75;;
55288;SDS011;41154;45.394;5.734;2023-03-13T09:26:02;1.73;;;0.90;;
55288;SDS011;41154;45.394;5.734;2023-03-13T09:28:29;1.85;;;0.90;;
55288;SDS011;41154;45.394;5.734;2023-03-13T09:30:55;1.75;;;0.95;;
55288;SDS011;41154;45.394;5.734;2023-03-13T09:33:30;1.50;;;0.80;;
55288;SDS011;41154;45.394;5.734;2023-03-13T09:35:55;2.00;;;1.00;;
55288;SDS011;41154;45.394;5.734;2023-03-13T09:38:21;1.67;;;0.90;;
55288;SDS011;41154;45.394;5.734;2023-03-13T09:40:48;1.42;;;0.90;;
55288;SDS011;41154;45.394;5.734;2023-03-13T09:46:02;1.70;;;0.85;;
55288;SDS011;41154;45.394;5.734;2023-03-13T09:48:40;1.42;;;0.98;;
55288;SDS011;41154;45.394;5.734;2023-03-13T09:54:06;1.55;;;0.90;;
55288;SDS011;41154;45.394;5.734;2023-03-13T09:56:48;1.13;;;0.80;;
55288;SDS011;41154;45.394;5.734;2023-03-13T09:59:27;2.67;;;0.77;;
55288;SDS011;41154;45.394;5.734;2023-03-13T10:02:02;1.75;;;0.80;;
55288;SDS011;41154;45.394;5.734;2023-03-13T10:04:41;1.27;;;0.63;;
55288;SDS011;41154;45.394;5.734;2023-03-13T10:07:12;3.40;;;0.90;;
55288;SDS011;41154;45.394;5.734;2023-03-13T10:09:38;1.15;;;0.63;;
55288;SDS011;41154;45.394;5.734;2023-03-13T10:12:27;1.48;;;0.80;;
55288;SDS011;41154;45.394;5.734;2023-03-13T10:17:44;1.67;;;0.90;;
55288;SDS011;41154;45.394;5.734;2023-03-13T10:22:50;2.17;;;0.88;;
55288;SDS011;41154;45.394;5.734;2023-03-13T10:27:48;2.63;;;0.85;;
55288;SDS011;41154;45.394;5.734;2023-03-13T10:30:22;1.55;;;0.70;;
55288;SDS011;41154;45.394;5.734;2023-03-13T10:33:15;3.72;;;1.08;;
55288;SDS011;41154;45.394;5.734;2023-03-13T10:36:09;0.77;;;0.50;;
55288;SDS011;41154;45.394;5.734;2023-03-13T10:38:46;1.45;;;0.77;;
55288;SDS011;41154;45.394;5.734;2023-03-13T10:41:25;1.63;;;0.70;;
55288;SDS011;41154;45.394;5.734;2023-03-13T10:43:54;1.55;;;0.80;;
55288;SDS011;41154;45.394;5.734;2023-03-13T10:46:28;1.02;;;0.60;;
55288;SDS011;41154;45.394;5.734;2023-03-13T10:49:02;0.73;;;0.47;;
55288;SDS011;41154;45.394;5.734;2023-03-13T10:51:32;1.00;;;0.60;;
55288;SDS011;41154;45.394;5.734;2023-03-13T10:54:22;0.40;;;0.40;;
55288;SDS011;41154;45.394;5.734;2023-03-13T10:59:45;0.98;;;0.50;;
55288;SDS011;41154;45.394;5.734;2023-03-13T11:02:34;0.60;;;0.60;;
55288;SDS011;41154;45.394;5.734;2023-03-13T11:07:51;0.80;;;0.40;;
55288;SDS011;41154;45.394;5.734;2023-03-13T11:10:19;2.00;;;0.70;;
55288;SDS011;41154;45.394;5.734;2023-03-13T11:12:56;1.50;;;0.73;;
55288;SDS011;41154;45.394;5.734;2023-03-13T11:17:58;2.17;;;0.47;;
55288;SDS011;41154;45.394;5.734;2023-03-13T11:20:39;1.48;;;0.60;;
55288;SDS011;41154;45.394;5.734;2023-03-13T11:23:09;1.40;;;0.70;;
55288;SDS011;41154;45.394;5.734;2023-03-13T11:30:58;0.50;;;0.40;;
55288;SDS011;41154;45.394;5.734;2023-03-13T11:36:07;0.88;;;0.47;;
55288;SDS011;41154;45.394;5.734;2023-03-13T11:38:54;4.45;;;0.68;;
55288;SDS011;41154;45.394;5.734;2023-03-13T11:41:55;0.40;;;0.38;;
55288;SDS011;41154;45.394;5.734;2023-03-13T11:55:43;0.38;;;0.35;;
55288;SDS011;41154;45.394;5.734;2023-03-13T11:58:40;0.88;;;0.50;;
55288;SDS011;41154;45.394;5.734;2023-03-13T12:01:32;0.70;;;0.40;;
55288;SDS011;41154;45.394;5.734;2023-03-13T12:04:05;1.27;;;0.60;;
55288;SDS011;41154;45.394;5.734;2023-03-13T12:06:45;0.88;;;0.52;;
55288;SDS011;41154;45.394;5.734;2023-03-13T12:09:27;0.47;;;0.40;;
55288;SDS011;41154;45.394;5.734;2023-03-13T12:12:14;2.38;;;0.70;;
55288;SDS011;41154;45.394;5.734;2023-03-13T12:14:50;1.45;;;0.68;;
55288;SDS011;41154;45.394;5.734;2023-03-13T12:25:53;1.88;;;0.55;;
55288;SDS011;41154;45.394;5.734;2023-03-13T12:37:07;0.70;;;0.60;;
55288;SDS011;41154;45.394;5.734;2023-03-13T12:40:18;1.60;;;0.60;;
55288;SDS011;41154;45.394;5.734;2023-03-13T12:43:03;1.70;;;0.80;;
55288;SDS011;41154;45.394;5.734;2023-03-13T12:45:35;0.85;;;0.60;;
55288;SDS011;41154;45.394;5.734;2023-03-13T12:48:22;0.70;;;0.40;;
55288;SDS011;41154;45.394;5.734;2023-03-13T12:51:08;1.33;;;0.70;;
55288;SDS011;41154;45.394;5.734;2023-03-13T12:54:17;0.77;;;0.52;;
55288;SDS011;41154;45.394;5.734;2023-03-13T12:59:39;0.50;;;0.40;;
55288;SDS011;41154;45.394;5.734;2023-03-13T13:02:18;1.23;;;0.70;;
55288;SDS011;41154;45.394;5.734;2023-03-13T13:04:49;2.03;;;0.68;;
55288;SDS011;41154;45.394;5.734;2023-03-13T13:12:35;1.08;;;0.63;;
55288;SDS011;41154;45.394;5.734;2023-03-13T13:15:14;3.00;;;0.65;;
55288;SDS011;41154;45.394;5.734;2023-03-13T13:17:50;3.30;;;0.95;;
55288;SDS011;41154;45.394;5.734;2023-03-13T13:25:48;0.85;;;0.52;;
55288;SDS011;41154;45.394;5.734;2023-03-13T13:30:46;1.52;;;0.60;;
55288;SDS011;41154;45.394;5.734;2023-03-13T13:38:33;1.48;;;0.60;;
55288;SDS011;41154;45.394;5.734;2023-03-13T13:41:21;0.68;;;0.40;;
55288;SDS011;41154;45.394;5.734;2023-03-13T13:44:14;1.17;;;0.82;;
55288;SDS011;41154;45.394;5.734;2023-03-13T13:46:46;0.40;;;0.35;;
55288;SDS011;41154;45.394;5.734;2023-03-13T13:51:40;0.80;;;0.40;;
55288;SDS011;41154;45.394;5.734;2023-03-13T13:57:06;0.68;;;0.30;;
55288;SDS011;41154;45.394;5.734;2023-03-13T13:59:41;0.47;;;0.38;;
55288;SDS011;41154;45.394;5.734;2023-03-13T14:02:17;0.32;;;0.22;;
55288;SDS011;41154;45.394;5.734;2023-03-13T14:04:48;0.30;;;0.20;;
55288;SDS011;41154;45.394;5.734;2023-03-13T14:07:22;0.40;;;0.20;;
55288;SDS011;41154;45.394;5.734;2023-03-13T14:12:52;0.25;;;0.17;;
55288;SDS011;41154;45.394;5.734;2023-03-13T14:15:23;0.38;;;0.20;;
55288;SDS011;41154;45.394;5.734;2023-03-13T14:17:52;0.35;;;0.20;;
55288;SDS011;41154;45.394;5.734;2023-03-13T14:22:57;0.43;;;0.10;;
55288;SDS011;41154;45.394;5.734;2023-03-13T14:25:25;0.20;;;0.20;;
55288;SDS011;41154;45.394;5.734;2023-03-13T14:27:53;0.20;;;0.20;;
55288;SDS011;41154;45.394;5.734;2023-03-13T14:30:20;0.10;;;0.10;;
55288;SDS011;41154;45.394;5.734;2023-03-13T14:32:47;0.28;;;0.20;;
55288;SDS011;41154;45.394;5.734;2023-03-13T14:35:14;0.30;;;0.10;;
55288;SDS011;41154;45.394;5.734;2023-03-13T14:37:49;0.30;;;0.20;;
55288;SDS011;41154;45.394;5.734;2023-03-13T14:42:43;0.68;;;0.20;;
55288;SDS011;41154;45.394;5.734;2023-03-13T14:45:12;0.10;;;0.10;;
55288;SDS011;41154;45.394;5.734;2023-03-13T14:47:45;2.17;;;0.30;;
55288;SDS011;41154;45.394;5.734;2023-03-13T14:50:11;0.15;;;0.15;;
55288;SDS011;41154;45.394;5.734;2023-03-13T14:52:48;0.20;;;0.20;;
55288;SDS011;41154;45.394;5.734;2023-03-13T14:58:00;0.30;;;0.20;;
55288;SDS011;41154;45.394;5.734;2023-03-13T15:03:15;0.30;;;0.25;;
55288;SDS011;41154;45.394;5.734;2023-03-13T15:08:37;0.20;;;0.20;;
55288;SDS011;41154;45.394;5.734;2023-03-13T15:13:53;0.20;;;0.20;;
55288;SDS011;41154;45.394;5.734;2023-03-13T15:16:20;0.30;;;0.30;;
55288;SDS011;41154;45.394;5.734;2023-03-13T15:18:47;0.85;;;0.20;;
55288;SDS011;41154;45.394;5.734;2023-03-13T15:23:41;0.55;;;0.30;;
55288;SDS011;41154;45.394;5.734;2023-03-13T15:26:29;1.45;;;0.25;;
55288;SDS011;41154;45.394;5.734;2023-03-13T15:28:55;0.20;;;0.20;;
55288;SDS011;41154;45.394;5.734;2023-03-13T15:31:22;0.40;;;0.30;;
55288;SDS011;41154;45.394;5.734;2023-03-13T15:33:53;0.75;;;0.22;;
55288;SDS011;41154;45.394;5.734;2023-03-13T15:36:22;0.32;;;0.22;;
55288;SDS011;41154;45.394;5.734;2023-03-13T15:38:48;1.75;;;0.40;;
55288;SDS011;41154;45.394;5.734;2023-03-13T15:41:16;0.30;;;0.30;;
